createdAt,value
2023-01-19T00:01:44.516Z,3.61
2023-01-19T00:04:13.118Z,3.58
2023-01-19T00:06:41.302Z,3.56
2023-01-19T00:09:09.428Z,3.60
2023-01-19T00:11:38.251Z,3.66
2023-01-19T00:14:06.347Z,3.65
2023-01-19T00:16:34.575Z,3.63
2023-01-19T00:19:03.352Z,3.62
2023-01-19T00:21:31.465Z,3.61
2023-01-19T00:23:59.624Z,3.70
2023-01-19T00:26:28.182Z,3.55
2023-01-19T00:28:56.561Z,3.50
2023-01-19T00:31:24.715Z,3.44
2023-01-19T00:33:53.401Z,3.46
2023-01-19T00:36:21.634Z,3.40
2023-01-19T00:38:49.824Z,3.43
2023-01-19T00:41:18.638Z,3.50
2023-01-19T00:43:46.791Z,3.53
2023-01-19T00:46:14.917Z,3.52
2023-01-19T00:48:43.406Z,3.53
2023-01-19T00:51:11.546Z,3.47
2023-01-19T00:53:39.590Z,3.40
2023-01-19T00:56:08.421Z,3.34
2023-01-19T00:58:36.554Z,3.34
2023-01-19T01:01:06.049Z,3.38
2023-01-19T01:03:35.296Z,3.31
2023-01-19T01:06:04.241Z,3.29
2023-01-19T01:08:32.439Z,2.28
2023-01-19T01:11:01.476Z,3.21
2023-01-19T01:13:29.830Z,3.20
2023-01-19T01:15:58.284Z,3.15
2023-01-19T01:18:26.867Z,3.16
2023-01-19T01:21:06.479Z,3.06
2023-01-19T01:23:35.477Z,3.00
2023-01-19T01:26:03.665Z,3.04
2023-01-19T01:28:32.262Z,2.96
2023-01-19T01:31:00.847Z,2.91
2023-01-19T01:33:39.803Z,2.91
2023-01-19T01:36:12.198Z,2.91
2023-01-19T01:38:41.097Z,2.83
2023-01-19T01:41:09.667Z,2.86
2023-01-19T01:43:44.952Z,2.85
2023-01-19T01:46:15.703Z,2.86
2023-01-19T01:48:51.495Z,2.80
2023-01-19T01:51:32.463Z,2.75
2023-01-19T01:54:26.197Z,2.76
2023-01-19T01:57:00.720Z,2.66
2023-01-19T01:59:40.091Z,2.62
2023-01-19T02:02:34.267Z,2.62
2023-01-19T02:05:10.328Z,2.55
2023-01-19T02:08:21.386Z,2.52
2023-01-19T02:11:09.852Z,2.45
2023-01-19T02:13:43.851Z,2.44
2023-01-19T02:16:13.867Z,2.38
2023-01-19T02:18:43.001Z,2.34
2023-01-19T02:21:33.809Z,2.33
2023-01-19T02:24:03.260Z,2.44
2023-01-19T02:26:39.887Z,2.53
2023-01-19T02:29:25.083Z,2.52
2023-01-19T02:31:54.501Z,2.45
2023-01-19T02:34:23.491Z,2.43
2023-01-19T02:36:59.190Z,2.44
2023-01-19T02:39:33.485Z,2.40
2023-01-19T02:42:06.728Z,2.27
2023-01-19T02:44:37.103Z,2.27
2023-01-19T02:47:05.802Z,2.20
2023-01-19T02:49:33.995Z,2.15
2023-01-19T02:52:02.739Z,2.16
2023-01-19T02:55:15.360Z,2.21
2023-01-19T02:58:12.092Z,2.23
2023-01-19T03:01:03.732Z,2.20
2023-01-19T03:03:56.255Z,2.40
2023-01-19T03:06:51.565Z,2.32
2023-01-19T03:09:32.489Z,2.31
2023-01-19T03:12:23.957Z,2.29
2023-01-19T03:14:57.338Z,2.29
2023-01-19T03:17:27.526Z,2.35
2023-01-19T03:19:57.588Z,2.32
2023-01-19T03:22:29.559Z,2.28
2023-01-19T03:25:01.733Z,2.27
2023-01-19T03:27:34.064Z,2.26
2023-01-19T03:30:11.639Z,2.21
2023-01-19T03:32:48.680Z,2.19
2023-01-19T03:35:19.793Z,2.19
2023-01-19T03:37:50.926Z,2.18
2023-01-19T03:40:19.440Z,2.19
2023-01-19T03:42:49.484Z,2.20
2023-01-19T03:45:18.503Z,2.13
2023-01-19T03:47:47.465Z,1.98
2023-01-19T03:50:25.495Z,1.96
2023-01-19T03:53:26.137Z,1.94
2023-01-19T03:55:55.343Z,1.78
2023-01-19T03:58:23.858Z,1.88
2023-01-19T04:00:52.308Z,1.82
2023-01-19T04:03:21.009Z,1.78
2023-01-19T04:05:49.403Z,1.81
2023-01-19T04:08:17.431Z,1.81
2023-01-19T04:10:45.966Z,1.73
2023-01-19T04:13:14.129Z,1.82
2023-01-19T04:15:42.200Z,1.84
2023-01-19T04:18:11.878Z,1.93
2023-01-19T04:20:40.042Z,1.85
2023-01-19T04:23:08.260Z,1.84
2023-01-19T04:25:38.122Z,1.76
2023-01-19T04:28:07.291Z,1.77
2023-01-19T04:30:35.520Z,1.83
2023-01-19T04:33:04.334Z,1.78
2023-01-19T04:35:34.328Z,1.92
2023-01-19T04:38:02.630Z,1.83
2023-01-19T04:40:31.401Z,1.77
2023-01-19T04:43:00.338Z,1.91
2023-01-19T04:45:28.694Z,1.95
2023-01-19T04:47:57.301Z,1.88
2023-01-19T04:50:25.616Z,1.92
2023-01-19T04:52:53.710Z,2.09
2023-01-19T04:55:22.040Z,2.03
2023-01-19T04:57:50.192Z,1.94
2023-01-19T05:00:18.920Z,1.91
2023-01-19T05:02:47.953Z,1.88
2023-01-19T05:05:16.405Z,1.90
2023-01-19T05:07:44.879Z,1.90
2023-01-19T05:10:13.370Z,1.92
2023-01-19T05:12:42.326Z,1.90
2023-01-19T05:15:11.272Z,1.99
2023-01-19T05:17:40.172Z,1.88
2023-01-19T05:20:10.955Z,1.96
2023-01-19T05:22:39.583Z,1.94
2023-01-19T05:25:11.313Z,1.90
2023-01-19T05:27:40.173Z,1.92
2023-01-19T05:30:09.077Z,1.87
2023-01-19T05:32:37.205Z,1.84
2023-01-19T05:35:06.528Z,1.85
2023-01-19T05:37:34.591Z,1.91
2023-01-19T05:40:02.660Z,1.93
2023-01-19T05:42:32.816Z,1.94
2023-01-19T05:45:01.381Z,1.90
2023-01-19T05:47:31.137Z,1.94
2023-01-19T05:49:59.860Z,1.92
2023-01-19T05:52:28.055Z,2.02
2023-01-19T05:54:56.364Z,2.17
2023-01-19T05:57:24.999Z,2.11
2023-01-19T05:59:53.373Z,2.15
2023-01-19T06:02:28.491Z,2.19
2023-01-19T06:04:57.324Z,2.27
2023-01-19T06:07:27.544Z,2.25
2023-01-19T06:09:58.658Z,2.34
2023-01-19T06:12:26.722Z,2.26
2023-01-19T06:14:54.881Z,2.18
2023-01-19T06:17:23.388Z,2.16
2023-01-19T06:19:51.820Z,2.13
2023-01-19T06:22:20.021Z,2.16
2023-01-19T06:24:48.669Z,2.11
2023-01-19T06:27:16.763Z,2.03
2023-01-19T06:29:44.826Z,2.15
2023-01-19T06:32:13.983Z,2.16
2023-01-19T06:34:43.871Z,2.11
2023-01-19T06:37:12.419Z,2.21
2023-01-19T06:39:41.314Z,2.04
2023-01-19T06:42:09.574Z,1.98
2023-01-19T06:44:38.248Z,2.14
2023-01-19T06:47:15.637Z,2.06
2023-01-19T06:49:56.715Z,2.04
2023-01-19T06:52:25.039Z,2.09
2023-01-19T06:54:53.156Z,2.05
2023-01-19T06:57:25.991Z,2.04
2023-01-19T06:59:54.587Z,2.01
2023-01-19T07:02:26.429Z,2.03
2023-01-19T07:04:57.141Z,2.11
2023-01-19T07:07:25.954Z,2.16
2023-01-19T07:09:54.392Z,2.25
2023-01-19T07:12:23.379Z,2.25
2023-01-19T07:14:52.755Z,2.30
2023-01-19T07:17:20.912Z,2.34
2023-01-19T07:19:49.604Z,2.37
2023-01-19T07:22:18.226Z,2.45
2023-01-19T07:24:46.281Z,2.41
2023-01-19T07:27:16.482Z,2.49
2023-01-19T07:29:44.740Z,2.46
2023-01-19T07:32:13.093Z,2.44
2023-01-19T07:34:41.898Z,2.45
2023-01-19T07:37:10.040Z,2.45
2023-01-19T07:39:38.561Z,2.43
2023-01-19T07:42:07.202Z,2.34
2023-01-19T07:44:38.354Z,2.35
2023-01-19T07:47:09.069Z,2.36
2023-01-19T07:49:37.370Z,2.41
2023-01-19T07:52:05.841Z,2.36
2023-01-19T07:54:34.434Z,2.45
2023-01-19T07:57:02.619Z,2.46
2023-01-19T07:59:32.356Z,2.52
2023-01-19T08:02:01.042Z,2.58
2023-01-19T08:04:29.831Z,2.59
2023-01-19T08:06:58.053Z,2.60
2023-01-19T08:09:26.354Z,2.62
2023-01-19T08:11:54.806Z,2.68
2023-01-19T08:14:23.135Z,2.67
2023-01-19T08:16:51.316Z,2.89
2023-01-19T08:19:19.955Z,2.80
2023-01-19T08:21:48.242Z,2.99
2023-01-19T08:24:21.650Z,2.91
2023-01-19T08:26:50.941Z,2.97
2023-01-19T08:29:19.300Z,3.02
2023-01-19T08:31:47.786Z,3.12
2023-01-19T08:34:16.485Z,3.15
2023-01-19T08:36:44.621Z,3.08
2023-01-19T08:39:13.624Z,3.14
2023-01-19T08:41:42.304Z,3.19
2023-01-19T08:44:10.496Z,3.21
2023-01-19T08:46:39.138Z,3.21
2023-01-19T08:49:08.794Z,3.17
2023-01-19T08:51:37.003Z,3.26
2023-01-19T08:54:05.802Z,3.22
2023-01-19T08:56:34.168Z,3.22
2023-01-19T08:59:09.762Z,3.05
2023-01-19T09:01:47.528Z,3.03
2023-01-19T09:04:15.952Z,3.10
2023-01-19T09:06:44.240Z,3.01
2023-01-19T09:09:13.196Z,3.04
2023-01-19T09:11:42.493Z,3.04
2023-01-19T09:14:10.725Z,2.99
2023-01-19T09:16:39.744Z,2.82
2023-01-19T09:19:09.174Z,2.81
2023-01-19T09:21:37.516Z,2.77
2023-01-19T09:24:06.239Z,2.76
2023-01-19T09:26:34.659Z,2.78
2023-01-19T09:29:02.981Z,2.82
2023-01-19T09:31:31.742Z,2.83
2023-01-19T09:34:00.027Z,2.83
2023-01-19T09:36:28.420Z,2.99
2023-01-19T09:38:56.845Z,2.93
2023-01-19T09:41:26.417Z,2.82
2023-01-19T09:44:00.615Z,2.80
2023-01-19T09:46:40.224Z,2.85
2023-01-19T09:49:16.162Z,2.72
2023-01-19T09:51:48.741Z,2.72
2023-01-19T09:54:56.731Z,2.76
2023-01-19T09:57:27.298Z,2.85
2023-01-19T09:59:59.658Z,2.74
2023-01-19T10:02:36.359Z,2.77
2023-01-19T10:05:27.661Z,2.69
2023-01-19T10:07:55.847Z,2.58
2023-01-19T10:10:28.304Z,2.63
2023-01-19T10:13:24.143Z,2.56
2023-01-19T10:16:22.856Z,2.55
2023-01-19T10:18:57.269Z,2.50
2023-01-19T10:21:35.001Z,2.52
2023-01-19T10:24:23.714Z,2.52
2023-01-19T10:26:55.412Z,2.40
2023-01-19T10:29:36.337Z,2.53
2023-01-19T10:32:17.343Z,2.47
2023-01-19T10:34:46.137Z,2.46
2023-01-19T10:37:25.396Z,2.35
2023-01-19T10:40:09.253Z,2.38
2023-01-19T10:42:41.152Z,2.35
2023-01-19T10:45:21.314Z,2.37
2023-01-19T10:47:50.518Z,2.35
2023-01-19T10:50:30.752Z,2.41
2023-01-19T10:53:04.257Z,2.40
2023-01-19T10:55:37.755Z,2.27
2023-01-19T10:58:25.802Z,2.26
2023-01-19T11:00:54.205Z,2.42
2023-01-19T11:03:30.290Z,2.27
2023-01-19T11:06:21.002Z,2.29
2023-01-19T11:08:52.008Z,2.25
2023-01-19T11:11:21.827Z,2.30
2023-01-19T11:14:09.400Z,2.27
2023-01-19T11:16:40.083Z,2.31
2023-01-19T11:19:20.879Z,2.32
2023-01-19T11:21:49.208Z,2.33
2023-01-19T11:24:17.769Z,2.34
2023-01-19T11:26:50.146Z,2.28
2023-01-19T11:29:25.214Z,2.32
2023-01-19T11:31:54.941Z,2.33
2023-01-19T11:34:30.245Z,2.30
2023-01-19T11:36:58.251Z,2.29
2023-01-19T11:39:29.550Z,2.37
2023-01-19T11:42:06.452Z,2.34
2023-01-19T11:44:42.663Z,2.35
2023-01-19T11:47:28.640Z,2.41
2023-01-19T11:50:03.051Z,2.46
2023-01-19T11:52:43.220Z,2.51
2023-01-19T11:55:19.909Z,2.50
2023-01-19T11:57:52.395Z,2.54
2023-01-19T12:00:37.266Z,2.63
2023-01-19T12:03:09.951Z,2.63
2023-01-19T12:05:43.192Z,2.69
2023-01-19T12:08:36.156Z,2.68
2023-01-19T12:11:06.092Z,2.64
2023-01-19T12:13:36.536Z,2.71
2023-01-19T12:16:12.340Z,2.88
2023-01-19T12:18:54.458Z,2.78
2023-01-19T12:21:23.316Z,2.84
2023-01-19T12:24:16.820Z,2.78
2023-01-19T12:26:53.729Z,2.75
2023-01-19T12:29:26.085Z,2.76
2023-01-19T12:32:13.029Z,2.72
2023-01-19T12:34:46.838Z,2.72
2023-01-19T12:37:36.633Z,2.69
2023-01-19T12:40:26.499Z,2.65
2023-01-19T12:43:02.202Z,2.58
2023-01-19T12:45:39.820Z,2.63
2023-01-19T12:48:24.891Z,2.60
2023-01-19T12:50:53.341Z,2.57
2023-01-19T12:53:22.649Z,2.54
2023-01-19T12:56:04.178Z,2.52
2023-01-19T12:58:34.640Z,2.53
2023-01-19T13:01:15.447Z,2.48
2023-01-19T13:03:58.487Z,2.49
2023-01-19T13:06:49.948Z,2.43
2023-01-19T13:09:38.533Z,2.43
2023-01-19T13:12:23.629Z,2.42
2023-01-19T13:15:28.741Z,2.55
2023-01-19T13:17:58.207Z,2.53
2023-01-19T13:20:33.880Z,2.52
2023-01-19T13:23:20.923Z,2.52
2023-01-19T13:25:52.831Z,2.49
2023-01-19T13:28:31.068Z,2.57
2023-01-19T13:31:02.617Z,2.61
2023-01-19T13:33:42.546Z,2.53
2023-01-19T13:36:22.563Z,2.50
2023-01-19T13:38:52.554Z,2.44
2023-01-19T13:41:25.211Z,2.34
2023-01-19T13:44:07.581Z,2.34
2023-01-19T13:46:38.690Z,2.30
2023-01-19T13:49:33.577Z,2.36
2023-01-19T13:52:17.010Z,2.31
2023-01-19T13:55:03.678Z,2.36
2023-01-19T13:57:34.790Z,2.30
2023-01-19T14:00:12.405Z,2.39
2023-01-19T14:02:56.073Z,2.34
2023-01-19T14:05:32.533Z,2.30
2023-01-19T14:08:03.343Z,2.18
2023-01-19T14:10:32.927Z,2.26
2023-01-19T14:13:34.445Z,2.27
2023-01-19T14:16:13.005Z,2.19
2023-01-19T14:18:41.301Z,2.23
2023-01-19T14:21:14.987Z,2.15
2023-01-19T14:24:06.567Z,2.19
2023-01-19T14:26:38.083Z,2.18
2023-01-19T14:29:26.142Z,2.27
2023-01-19T14:32:00.984Z,2.23
2023-01-19T14:34:42.920Z,2.25
2023-01-19T14:37:40.903Z,2.19
2023-01-19T14:40:11.065Z,2.23
2023-01-19T14:42:48.611Z,2.00
2023-01-19T14:45:34.207Z,1.96
2023-01-19T14:48:06.025Z,1.80
2023-01-19T14:50:38.158Z,1.81
2023-01-19T14:53:25.684Z,1.77
2023-01-19T14:55:56.685Z,1.67
2023-01-19T14:58:26.855Z,1.68
2023-01-19T15:00:56.069Z,1.66
2023-01-19T15:03:35.011Z,1.62
2023-01-19T15:06:19.523Z,1.74
2023-01-19T15:08:50.388Z,1.65
2023-01-19T15:11:35.044Z,1.68
2023-01-19T15:14:03.825Z,1.62
2023-01-19T15:16:34.312Z,1.58
2023-01-19T15:19:02.829Z,1.48
2023-01-19T15:21:31.479Z,1.59
2023-01-19T15:24:00.379Z,1.59
2023-01-19T15:26:28.706Z,1.64
2023-01-19T15:28:57.382Z,1.64
2023-01-19T15:31:26.626Z,1.56
2023-01-19T15:33:54.842Z,1.62
2023-01-19T15:36:24.439Z,1.66
2023-01-19T15:38:52.666Z,1.61
2023-01-19T15:41:29.889Z,1.55
2023-01-19T15:43:59.137Z,1.53
2023-01-19T15:46:27.477Z,1.55
2023-01-19T15:48:55.851Z,1.48
2023-01-19T15:51:26.160Z,1.66
2023-01-19T15:53:55.041Z,1.52
2023-01-19T15:56:28.925Z,1.57
2023-01-19T15:58:58.620Z,1.59
2023-01-19T16:01:32.908Z,1.49
2023-01-19T16:04:04.749Z,1.49
2023-01-19T16:06:33.787Z,1.47
2023-01-19T16:09:05.758Z,1.48
2023-01-19T16:11:35.208Z,1.47
2023-01-19T16:14:03.638Z,1.47
2023-01-19T16:16:32.011Z,1.41
2023-01-19T16:19:00.305Z,1.44
2023-01-19T16:21:28.628Z,1.43
2023-01-19T16:23:56.849Z,1.57
2023-01-19T16:26:34.972Z,1.40
2023-01-19T16:29:09.874Z,1.42
2023-01-19T16:31:39.313Z,1.46
2023-01-19T16:34:08.653Z,1.57
2023-01-19T16:36:40.500Z,1.51
2023-01-19T16:39:13.384Z,1.53
2023-01-19T16:41:43.030Z,1.47
2023-01-19T16:44:13.641Z,1.52
2023-01-19T16:46:44.306Z,1.48
2023-01-19T16:49:16.263Z,1.50
2023-01-19T16:51:44.948Z,1.56
2023-01-19T16:54:19.845Z,1.52
2023-01-19T16:56:48.783Z,1.60
2023-01-19T16:59:18.314Z,1.59
2023-01-19T17:01:47.167Z,1.48
2023-01-19T17:04:15.259Z,1.60
2023-01-19T17:06:44.425Z,1.49
2023-01-19T17:09:13.568Z,1.58
2023-01-19T17:11:42.882Z,1.50
2023-01-19T17:14:17.717Z,1.28
2023-01-19T17:16:46.972Z,1.40
2023-01-19T17:19:18.511Z,1.41
2023-01-19T17:21:48.852Z,1.39
2023-01-19T17:24:18.608Z,1.30
2023-01-19T17:26:48.829Z,1.41
2023-01-19T17:29:18.421Z,1.35
2023-01-19T17:31:47.020Z,1.32
2023-01-19T17:34:15.670Z,1.45
2023-01-19T17:36:44.577Z,1.34
2023-01-19T17:39:15.028Z,1.41
2023-01-19T17:41:44.329Z,1.35
2023-01-19T17:44:12.742Z,1.33
2023-01-19T17:46:41.714Z,1.38
2023-01-19T17:49:11.285Z,1.35
2023-01-19T17:51:40.699Z,1.32
2023-01-19T17:54:10.793Z,1.29
2023-01-19T17:56:41.494Z,1.37
2023-01-19T17:59:10.300Z,1.22
2023-01-19T18:01:40.448Z,1.27
2023-01-19T18:04:09.606Z,1.15
2023-01-19T18:06:38.204Z,1.33
2023-01-19T18:09:08.519Z,1.22
2023-01-19T18:11:46.549Z,1.14
2023-01-19T18:14:20.629Z,1.04
2023-01-19T18:16:54.525Z,1.23
2023-01-19T18:19:29.231Z,1.14
2023-01-19T18:22:04.798Z,1.18
2023-01-19T18:24:36.977Z,1.06
2023-01-19T18:27:11.382Z,1.10
2023-01-19T18:29:42.255Z,1.25
2023-01-19T18:32:11.376Z,1.16
2023-01-19T18:34:39.892Z,1.07
2023-01-19T18:37:08.312Z,1.15
2023-01-19T18:39:37.424Z,1.14
2023-01-19T18:42:06.496Z,1.12
2023-01-19T18:44:35.082Z,1.12
2023-01-19T18:47:04.167Z,1.04
2023-01-19T18:49:32.571Z,1.03
2023-01-19T18:52:01.130Z,1.10
2023-01-19T18:54:29.966Z,1.04
2023-01-19T18:56:58.522Z,1.08
2023-01-19T18:59:26.939Z,0.94
2023-01-19T19:01:56.513Z,1.01
2023-01-19T19:04:55.822Z,1.11
2023-01-19T19:07:14.373Z,1.05
2023-01-19T19:09:43.210Z,1.11
2023-01-19T19:12:12.132Z,1.01
2023-01-19T19:14:41.054Z,1.19
2023-01-19T19:17:09.508Z,1.17
2023-01-19T19:19:38.120Z,0.97
2023-01-19T19:22:06.965Z,0.97
2023-01-19T19:24:35.821Z,1.10
2023-01-19T19:27:04.340Z,0.98
2023-01-19T19:29:33.815Z,1.09
2023-01-19T19:32:02.266Z,0.95
2023-01-19T19:34:30.820Z,1.06
2023-01-19T19:37:01.188Z,1.07
2023-01-19T19:39:30.061Z,1.01
2023-01-19T19:41:59.017Z,1.01
2023-01-19T19:44:27.298Z,1.13
2023-01-19T19:46:55.925Z,1.10
2023-01-19T19:49:24.669Z,1.09
2023-01-19T19:51:53.729Z,0.92
2023-01-19T19:54:22.032Z,0.97
2023-01-19T19:56:52.145Z,0.89
2023-01-19T19:59:20.574Z,0.98
2023-01-19T20:01:50.601Z,0.84
2023-01-19T20:04:21.311Z,0.85
2023-01-19T20:06:50.127Z,0.99
2023-01-19T20:09:18.979Z,0.80
2023-01-19T20:11:49.090Z,0.80
2023-01-19T20:14:17.566Z,0.77
2023-01-19T20:16:46.380Z,0.87
2023-01-19T20:19:15.285Z,0.83
2023-01-19T20:21:44.073Z,0.95
2023-01-19T20:24:20.448Z,0.96
2023-01-19T20:26:52.241Z,0.82
2023-01-19T20:29:21.328Z,0.90
2023-01-19T20:31:52.805Z,0.80
2023-01-19T20:34:23.884Z,0.72
2023-01-19T20:36:53.965Z,0.65
2023-01-19T20:39:24.051Z,0.65
2023-01-19T20:41:53.958Z,0.77
2023-01-19T20:44:24.552Z,0.54
2023-01-19T20:46:54.479Z,0.48
2023-01-19T20:49:23.603Z,0.66
2023-01-19T20:51:52.286Z,0.60
2023-01-19T20:54:25.932Z,0.57
2023-01-19T20:56:54.704Z,0.55
2023-01-19T20:59:23.765Z,0.54
2023-01-19T21:01:52.698Z,0.55
2023-01-19T21:04:22.411Z,0.59
2023-01-19T21:06:50.782Z,0.60
2023-01-19T21:09:19.560Z,0.77
2023-01-19T21:11:48.313Z,0.60
2023-01-19T21:14:16.691Z,0.66
2023-01-19T21:16:45.509Z,0.75
2023-01-19T21:19:14.551Z,0.73
2023-01-19T21:21:43.169Z,0.80
2023-01-19T21:24:11.793Z,0.68
2023-01-19T21:26:41.824Z,0.68
2023-01-19T21:29:13.518Z,0.63
2023-01-19T21:31:42.338Z,0.85
2023-01-19T21:34:10.658Z,0.90
2023-01-19T21:36:38.912Z,0.82
2023-01-19T21:39:08.246Z,0.83
2023-01-19T21:41:38.534Z,0.83
2023-01-19T21:44:07.144Z,0.74
2023-01-19T21:46:35.693Z,0.85
2023-01-19T21:49:07.757Z,0.83
2023-01-19T21:51:37.230Z,0.83
2023-01-19T21:54:07.101Z,0.77
2023-01-19T21:56:42.394Z,0.74
2023-01-19T21:59:15.296Z,0.75
2023-01-19T22:01:46.063Z,0.77
2023-01-19T22:04:14.725Z,0.70
2023-01-19T22:06:42.729Z,0.70
2023-01-19T22:09:11.053Z,0.77
2023-01-19T22:11:39.706Z,0.81
2023-01-19T22:14:07.968Z,0.86
2023-01-19T22:16:36.043Z,0.95
2023-01-19T22:19:07.373Z,1.00
2023-01-19T22:21:35.901Z,1.08
2023-01-19T22:24:05.398Z,1.05
2023-01-19T22:26:34.716Z,1.17
2023-01-19T22:29:05.760Z,1.04
2023-01-19T22:31:34.559Z,0.97
2023-01-19T22:34:03.127Z,1.06
2023-01-19T22:36:34.071Z,1.09
2023-01-19T22:39:09.275Z,1.08
2023-01-19T22:41:42.717Z,1.04
2023-01-19T22:44:16.659Z,1.04
2023-01-19T22:46:44.855Z,1.18
2023-01-19T22:49:15.299Z,1.18
2023-01-19T22:51:43.764Z,1.08
2023-01-19T22:54:12.217Z,0.99
2023-01-19T22:56:41.903Z,0.91
2023-01-19T22:59:10.013Z,0.84
2023-01-19T23:01:41.424Z,0.79
2023-01-19T23:04:15.179Z,0.77
2023-01-19T23:06:43.751Z,0.65
2023-01-19T23:09:14.115Z,0.61
2023-01-19T23:11:45.440Z,0.70
2023-01-19T23:14:16.803Z,0.51
2023-01-19T23:16:47.409Z,0.48
2023-01-19T23:19:17.324Z,0.41
2023-01-19T23:21:46.163Z,0.43
2023-01-19T23:24:14.318Z,0.39
2023-01-19T23:26:42.726Z,0.43
2023-01-19T23:29:14.399Z,0.38
2023-01-19T23:31:45.682Z,0.43
2023-01-19T23:34:14.334Z,0.44
2023-01-19T23:36:42.876Z,0.51
2023-01-19T23:39:17.985Z,0.48
2023-01-19T23:41:46.815Z,0.59
2023-01-19T23:44:15.473Z,0.47
2023-01-19T23:46:44.116Z,0.48
2023-01-19T23:49:13.385Z,0.42
2023-01-19T23:51:41.995Z,0.46
2023-01-19T23:54:10.220Z,0.44
2023-01-19T23:56:39.019Z,0.38
2023-01-19T23:59:09.941Z,0.41
